createdAt,value
2023-04-18T00:00:43.138Z,8.90
2023-04-18T00:03:10.033Z,8.90
2023-04-18T00:05:37.874Z,9.00
2023-04-18T00:08:05.687Z,9.00
2023-04-18T00:10:32.767Z,8.90
2023-04-18T00:13:00.404Z,9.00
2023-04-18T00:15:29.334Z,8.90
2023-04-18T00:18:00.821Z,8.90
2023-04-18T00:20:27.638Z,9.00
2023-04-18T00:22:55.172Z,8.90
2023-04-18T00:25:21.981Z,8.90
2023-04-18T00:27:48.642Z,8.80
2023-04-18T00:30:15.654Z,8.90
2023-04-18T00:32:42.520Z,8.70
2023-04-18T00:35:09.408Z,8.80
2023-04-18T00:37:37.153Z,8.70
2023-04-18T00:40:05.775Z,8.70
2023-04-18T00:42:33.858Z,8.60
2023-04-18T00:45:00.715Z,8.60
2023-04-18T00:47:27.552Z,8.50
2023-04-18T00:49:54.913Z,8.50
2023-04-18T00:52:21.628Z,8.50
2023-04-18T00:54:48.376Z,8.50
2023-04-18T00:57:15.598Z,8.50
2023-04-18T00:59:42.626Z,8.40
2023-04-18T01:02:09.462Z,8.50
2023-04-18T01:04:37.370Z,8.50
2023-04-18T01:07:04.477Z,8.40
2023-04-18T01:09:31.443Z,8.40
2023-04-18T01:11:58.286Z,8.10
2023-04-18T01:14:25.108Z,8.10
2023-04-18T01:16:52.146Z,8.10
2023-04-18T01:19:19.226Z,7.90
2023-04-18T01:21:46.166Z,7.90
2023-04-18T01:24:17.619Z,7.90
2023-04-18T01:26:49.065Z,7.90
2023-04-18T01:29:15.939Z,7.90
2023-04-18T01:31:42.715Z,7.80
2023-04-18T01:34:09.705Z,7.80
2023-04-18T01:36:38.019Z,7.80
2023-04-18T01:39:04.674Z,7.80
2023-04-18T01:41:32.907Z,7.80
2023-04-18T01:43:59.868Z,7.80
2023-04-18T01:46:27.008Z,7.70
2023-04-18T01:48:53.879Z,7.70
2023-04-18T01:51:20.709Z,7.70
2023-04-18T01:53:47.316Z,7.60
2023-04-18T01:56:14.769Z,7.60
2023-04-18T01:58:44.561Z,7.50
2023-04-18T02:01:11.653Z,7.50
2023-04-18T02:03:38.805Z,7.50
2023-04-18T02:06:06.466Z,7.50
2023-04-18T02:08:35.609Z,7.50
2023-04-18T02:11:02.609Z,7.40
2023-04-18T02:13:29.439Z,7.50
2023-04-18T02:15:56.088Z,7.40
2023-04-18T02:18:24.733Z,7.50
2023-04-18T02:20:52.180Z,7.50
2023-04-18T02:23:19.170Z,7.50
2023-04-18T02:25:46.134Z,7.50
2023-04-18T02:28:12.961Z,7.50
2023-04-18T02:30:39.742Z,7.50
2023-04-18T02:33:06.593Z,7.50
2023-04-18T02:35:34.150Z,7.50
2023-04-18T02:38:00.827Z,7.40
2023-04-18T02:40:27.638Z,7.30
2023-04-18T02:42:54.411Z,7.40
2023-04-18T02:45:21.034Z,7.30
2023-04-18T02:47:55.132Z,7.30
2023-04-18T02:50:23.591Z,7.20
2023-04-18T02:52:50.412Z,7.20
2023-04-18T02:55:17.241Z,7.10
2023-04-18T02:57:43.858Z,7.10
2023-04-18T03:00:11.379Z,7.10
2023-04-18T03:02:38.205Z,7.00
2023-04-18T03:05:06.311Z,7.00
2023-04-18T03:07:33.187Z,7.00
2023-04-18T03:09:59.982Z,6.90
2023-04-18T03:12:26.780Z,6.90
2023-04-18T03:14:53.418Z,6.80
2023-04-18T03:17:20.123Z,6.80
2023-04-18T03:19:46.762Z,6.80
2023-04-18T03:22:13.928Z,6.80
2023-04-18T03:24:40.558Z,6.80
2023-04-18T03:27:08.488Z,6.80
2023-04-18T03:29:35.382Z,6.80
2023-04-18T03:32:02.020Z,6.70
2023-04-18T03:34:30.202Z,6.70
2023-04-18T03:36:57.248Z,6.70
2023-04-18T03:39:24.001Z,6.60
2023-04-18T03:41:52.337Z,6.60
2023-04-18T03:44:19.267Z,6.60
2023-04-18T03:46:46.394Z,6.60
2023-04-18T03:49:13.245Z,6.50
2023-04-18T03:51:49.849Z,6.50
2023-04-18T03:54:17.279Z,6.50
2023-04-18T03:56:44.670Z,6.50
2023-04-18T03:59:11.917Z,6.50
2023-04-18T04:01:38.594Z,6.50
2023-04-18T04:04:05.771Z,6.50
2023-04-18T04:06:32.418Z,6.50
2023-04-18T04:08:59.063Z,6.50
2023-04-18T04:11:26.020Z,6.50
2023-04-18T04:13:52.902Z,6.50
2023-04-18T04:16:19.745Z,6.50
2023-04-18T04:18:46.758Z,6.40
2023-04-18T04:21:13.643Z,6.40
2023-04-18T04:23:42.525Z,6.40
2023-04-18T04:26:09.232Z,6.40
2023-04-18T04:28:36.271Z,6.40
2023-04-18T04:31:06.348Z,6.40
2023-04-18T04:33:33.358Z,6.40
2023-04-18T04:36:01.129Z,6.40
2023-04-18T04:38:31.049Z,6.40
2023-04-18T04:40:58.418Z,6.40
2023-04-18T04:43:26.057Z,6.40
2023-04-18T04:45:53.286Z,6.30
2023-04-18T04:48:21.941Z,6.30
2023-04-18T04:50:53.783Z,6.30
2023-04-18T04:53:20.893Z,6.40
2023-04-18T04:55:47.691Z,6.30
2023-04-18T04:58:14.711Z,6.40
2023-04-18T05:00:41.620Z,6.40
2023-04-18T05:03:08.675Z,6.40
2023-04-18T05:05:35.854Z,6.40
2023-04-18T05:08:02.986Z,6.40
2023-04-18T05:10:30.365Z,6.40
2023-04-18T05:12:57.031Z,6.50
2023-04-18T05:15:25.976Z,6.50
2023-04-18T05:17:52.646Z,6.60
2023-04-18T05:20:19.242Z,6.60
2023-04-18T05:22:45.835Z,6.60
2023-04-18T05:25:12.663Z,6.60
2023-04-18T05:27:41.626Z,6.70
2023-04-18T05:30:11.149Z,6.70
2023-04-18T05:32:39.054Z,6.80
2023-04-18T05:35:09.390Z,6.90
2023-04-18T05:37:36.428Z,6.90
2023-04-18T05:40:07.418Z,6.90
2023-04-18T05:42:33.985Z,7.00
2023-04-18T05:45:00.861Z,7.10
2023-04-18T05:47:28.575Z,7.10
2023-04-18T05:49:55.652Z,7.20
2023-04-18T05:52:22.299Z,7.30
2023-04-18T05:54:50.797Z,7.30
2023-04-18T05:57:17.399Z,7.30
2023-04-18T05:59:46.747Z,7.40
2023-04-18T06:02:15.496Z,7.40
2023-04-18T06:04:43.017Z,7.50
2023-04-18T06:07:10.124Z,7.50
2023-04-18T06:09:36.745Z,7.60
2023-04-18T06:12:03.867Z,7.60
2023-04-18T06:14:30.479Z,7.60
2023-04-18T06:16:59.589Z,7.70
2023-04-18T06:19:26.314Z,7.70
2023-04-18T06:21:53.358Z,7.70
2023-04-18T06:24:21.755Z,7.80
2023-04-18T06:26:48.405Z,7.90
2023-04-18T06:29:15.172Z,8.00
2023-04-18T06:31:42.239Z,8.10
2023-04-18T06:34:09.144Z,8.10
2023-04-18T06:36:37.974Z,8.10
2023-04-18T06:39:04.650Z,8.20
2023-04-18T06:41:31.563Z,8.30
2023-04-18T06:44:04.761Z,8.30
2023-04-18T06:46:32.685Z,8.40
2023-04-18T06:49:01.852Z,8.50
2023-04-18T06:51:29.104Z,8.30
2023-04-18T06:53:56.083Z,8.30
2023-04-18T06:56:22.842Z,8.40
2023-04-18T06:58:50.041Z,8.40
2023-04-18T07:01:16.838Z,8.50
2023-04-18T07:03:45.789Z,8.70
2023-04-18T07:06:12.545Z,8.70
2023-04-18T07:08:41.442Z,8.80
2023-04-18T07:11:08.163Z,8.80
2023-04-18T07:13:34.772Z,8.80
2023-04-18T07:16:01.710Z,9.00
2023-04-18T07:18:37.424Z,8.90
2023-04-18T07:21:09.053Z,8.90
2023-04-18T07:23:36.348Z,9.00
2023-04-18T07:26:08.578Z,9.20
2023-04-18T07:28:35.272Z,9.30
2023-04-18T07:31:07.015Z,9.30
2023-04-18T07:33:34.913Z,9.50
2023-04-18T07:36:01.726Z,9.50
2023-04-18T07:38:31.700Z,9.50
2023-04-18T07:41:00.179Z,9.60
2023-04-18T07:43:27.025Z,9.60
2023-04-18T07:45:53.965Z,9.70
2023-04-18T07:48:25.458Z,9.70
2023-04-18T07:50:52.233Z,9.90
2023-04-18T07:53:18.854Z,10.00
2023-04-18T07:55:47.995Z,10.10
2023-04-18T07:58:16.253Z,10.20
2023-04-18T08:00:44.617Z,10.20
2023-04-18T08:03:13.662Z,10.30
2023-04-18T08:05:41.693Z,10.30
2023-04-18T08:08:10.400Z,10.40
2023-04-18T08:10:38.645Z,10.50
2023-04-18T08:13:06.582Z,10.50
2023-04-18T08:15:33.234Z,10.50
2023-04-18T08:18:01.314Z,10.50
2023-04-18T08:20:28.282Z,10.60
2023-04-18T08:25:24.696Z,10.70
2023-04-18T08:27:53.093Z,10.70
2023-04-18T08:30:19.765Z,10.60
2023-04-18T08:32:46.490Z,10.60
2023-04-18T08:35:13.183Z,10.80
2023-04-18T08:37:39.838Z,10.90
2023-04-18T08:40:07.420Z,10.90
2023-04-18T08:42:37.370Z,10.80
2023-04-18T08:45:05.408Z,10.70
2023-04-18T08:47:37.076Z,10.60
2023-04-18T08:50:03.950Z,10.60
2023-04-18T08:52:34.202Z,10.80
2023-04-18T08:55:04.115Z,10.90
2023-04-18T08:57:31.757Z,11.00
2023-04-18T09:00:06.685Z,11.00
2023-04-18T09:02:45.170Z,11.10
2023-04-18T09:05:18.784Z,11.20
2023-04-18T09:07:48.288Z,11.20
2023-04-18T09:10:34.791Z,11.20
2023-04-18T09:13:05.500Z,11.30
2023-04-18T09:15:34.361Z,11.30
2023-04-18T09:18:03.050Z,11.30
2023-04-18T09:20:34.985Z,11.50
2023-04-18T09:23:16.091Z,11.60
2023-04-18T09:25:47.024Z,11.50
2023-04-18T09:28:33.380Z,11.50
2023-04-18T09:31:17.522Z,11.80
2023-04-18T09:33:54.380Z,12.00
2023-04-18T09:36:24.132Z,11.90
2023-04-18T09:38:54.630Z,12.00
2023-04-18T09:41:24.006Z,11.90
2023-04-18T09:43:52.117Z,11.90
2023-04-18T09:46:18.878Z,12.00
2023-04-18T09:48:45.543Z,12.00
2023-04-18T09:51:15.619Z,12.00
2023-04-18T09:53:52.886Z,12.20
2023-04-18T09:56:27.500Z,12.40
2023-04-18T09:59:07.119Z,12.50
2023-04-18T10:01:34.657Z,12.60
2023-04-18T10:04:03.532Z,12.70
2023-04-18T10:06:33.358Z,12.90
2023-04-18T10:09:02.916Z,12.80
2023-04-18T10:11:33.775Z,12.70
2023-04-18T10:14:07.622Z,12.80
2023-04-18T10:16:36.599Z,12.60
2023-04-18T10:19:26.388Z,12.60
2023-04-18T10:21:54.563Z,12.60
2023-04-18T10:24:53.792Z,12.60
2023-04-18T10:27:50.130Z,12.30
2023-04-18T10:30:17.351Z,12.10
2023-04-18T10:32:47.031Z,11.90
2023-04-18T10:35:13.692Z,11.80
2023-04-18T10:37:59.355Z,11.70
2023-04-18T10:40:33.864Z,11.70
2023-04-18T10:43:02.970Z,11.70
2023-04-18T10:45:32.377Z,11.80
2023-04-18T10:48:29.861Z,11.60
2023-04-18T10:51:18.648Z,11.70
2023-04-18T10:53:59.444Z,11.60
2023-04-18T10:56:27.893Z,11.60
2023-04-18T10:58:54.786Z,11.40
2023-04-18T11:01:32.364Z,11.30
2023-04-18T11:04:00.143Z,11.30
2023-04-18T11:06:27.637Z,11.40
2023-04-18T11:09:14.120Z,11.50
2023-04-18T11:11:43.175Z,11.70
2023-04-18T11:14:10.569Z,11.90
2023-04-18T11:16:37.411Z,11.90
2023-04-18T11:19:20.806Z,12.00
2023-04-18T11:21:47.415Z,12.10
2023-04-18T11:24:23.689Z,12.30
2023-04-18T11:26:50.523Z,12.40
2023-04-18T11:29:20.181Z,12.40
2023-04-18T11:31:55.845Z,12.50
2023-04-18T11:34:32.208Z,12.50
2023-04-18T11:37:00.958Z,12.60
2023-04-18T11:39:31.748Z,12.60
2023-04-18T11:41:59.475Z,12.80
2023-04-18T11:44:26.637Z,13.00
2023-04-18T11:46:53.708Z,13.20
2023-04-18T11:49:31.655Z,13.20
2023-04-18T11:52:00.154Z,13.00
2023-04-18T11:54:43.306Z,12.90
2023-04-18T11:57:25.358Z,13.10
2023-04-18T11:59:54.104Z,13.20
2023-04-18T12:02:24.578Z,13.20
2023-04-18T12:04:55.157Z,13.20
2023-04-18T12:07:33.713Z,13.20
2023-04-18T12:10:00.955Z,13.30
2023-04-18T12:12:31.777Z,13.10
2023-04-18T12:15:08.812Z,12.80
2023-04-18T12:17:37.683Z,12.80
2023-04-18T12:20:10.249Z,12.80
2023-04-18T12:22:46.814Z,12.80
2023-04-18T12:25:27.077Z,13.10
2023-04-18T12:27:54.069Z,13.10
2023-04-18T12:30:22.445Z,13.00
2023-04-18T12:32:50.914Z,13.00
2023-04-18T12:35:19.189Z,13.10
2023-04-18T12:37:47.186Z,13.00
2023-04-18T12:40:14.498Z,13.00
2023-04-18T12:42:44.005Z,13.10
2023-04-18T12:45:13.175Z,13.20
2023-04-18T12:47:42.035Z,13.30
2023-04-18T12:50:11.537Z,13.30
2023-04-18T12:52:42.269Z,13.40
2023-04-18T12:55:11.102Z,13.70
2023-04-18T12:57:39.714Z,13.60
2023-04-18T13:00:12.810Z,13.70
2023-04-18T13:02:41.689Z,13.70
2023-04-18T13:05:12.083Z,13.80
2023-04-18T13:07:42.403Z,13.90
2023-04-18T13:10:11.746Z,14.00
2023-04-18T13:12:39.867Z,13.90
2023-04-18T13:15:07.531Z,14.00
2023-04-18T13:17:36.692Z,14.10
2023-04-18T13:20:08.430Z,13.90
2023-04-18T13:22:35.984Z,13.90
2023-04-18T13:25:03.348Z,13.90
2023-04-18T13:27:30.141Z,14.10
2023-04-18T13:29:57.205Z,14.30
2023-04-18T13:32:24.582Z,14.30
2023-04-18T13:34:51.231Z,14.10
2023-04-18T13:37:17.851Z,14.30
2023-04-18T13:39:44.526Z,14.20
2023-04-18T13:42:11.139Z,14.10
2023-04-18T13:44:38.711Z,14.10
2023-04-18T13:47:07.961Z,14.30
2023-04-18T13:49:36.261Z,14.40
2023-04-18T13:52:04.208Z,14.60
2023-04-18T13:54:32.188Z,15.00
2023-04-18T13:57:04.344Z,15.00
2023-04-18T13:59:32.377Z,15.20
2023-04-18T14:02:01.170Z,15.10
2023-04-18T14:04:28.214Z,15.00
2023-04-18T14:06:56.990Z,15.00
2023-04-18T14:09:23.905Z,15.30
2023-04-18T14:11:51.259Z,15.40
2023-04-18T14:14:17.917Z,15.20
2023-04-18T14:16:45.204Z,15.00
2023-04-18T14:19:12.192Z,15.10
2023-04-18T14:21:38.929Z,14.90
2023-04-18T14:24:06.754Z,14.90
2023-04-18T14:26:33.318Z,14.90
2023-04-18T14:29:00.834Z,14.80
2023-04-18T14:31:30.812Z,14.80
2023-04-18T14:33:57.422Z,14.80
2023-04-18T14:36:24.195Z,14.80
2023-04-18T14:38:51.939Z,14.80
2023-04-18T14:41:18.531Z,14.90
2023-04-18T14:43:45.193Z,14.90
2023-04-18T14:46:13.653Z,14.70
2023-04-18T14:48:40.515Z,14.60
2023-04-18T14:51:07.638Z,14.30
2023-04-18T14:53:34.485Z,14.30
2023-04-18T14:56:01.079Z,14.30
2023-04-18T14:58:27.616Z,14.50
2023-04-18T15:00:54.240Z,14.40
2023-04-18T15:03:20.952Z,14.40
2023-04-18T15:05:48.837Z,14.50
2023-04-18T15:08:16.118Z,14.60
2023-04-18T15:10:42.819Z,14.40
2023-04-18T15:13:10.914Z,14.50
2023-04-18T15:15:40.239Z,14.50
2023-04-18T15:18:08.264Z,14.70
2023-04-18T15:20:36.039Z,14.70
2023-04-18T15:23:02.857Z,14.80
2023-04-18T15:25:30.412Z,14.90
2023-04-18T15:27:59.528Z,15.10
2023-04-18T15:30:26.183Z,15.00
2023-04-18T15:32:53.873Z,14.80
2023-04-18T15:35:22.658Z,14.80
2023-04-18T15:37:49.340Z,14.70
2023-04-18T15:40:16.431Z,14.70
2023-04-18T15:42:43.700Z,14.80
2023-04-18T15:45:11.606Z,14.90
2023-04-18T15:47:38.818Z,14.90
2023-04-18T15:50:06.965Z,14.90
2023-04-18T15:52:33.734Z,15.00
2023-04-18T15:55:00.920Z,15.30
2023-04-18T15:57:29.609Z,15.50
2023-04-18T15:59:56.659Z,15.90
2023-04-18T16:02:23.417Z,16.20
2023-04-18T16:04:50.229Z,16.10
2023-04-18T16:07:17.100Z,16.20
2023-04-18T16:09:45.532Z,16.40
2023-04-18T16:12:12.193Z,16.60
2023-04-18T16:14:38.789Z,16.60
2023-04-18T16:17:06.968Z,16.70
2023-04-18T16:19:36.191Z,16.60
2023-04-18T16:22:03.065Z,16.30
2023-04-18T16:24:31.082Z,16.20
2023-04-18T16:26:58.473Z,16.00
2023-04-18T16:29:25.318Z,16.00
2023-04-18T16:31:52.137Z,16.10
2023-04-18T16:34:18.746Z,16.20
2023-04-18T16:36:45.388Z,15.80
2023-04-18T16:39:12.150Z,15.70
2023-04-18T16:41:38.783Z,15.70
2023-04-18T16:44:05.383Z,15.70
2023-04-18T16:46:32.356Z,15.60
2023-04-18T16:49:01.342Z,15.70
2023-04-18T16:51:28.784Z,15.90
2023-04-18T16:53:55.651Z,16.00
2023-04-18T16:56:22.206Z,16.30
2023-04-18T16:58:48.773Z,16.30
2023-04-18T17:01:16.889Z,16.00
2023-04-18T17:03:43.657Z,15.80
2023-04-18T17:06:10.308Z,15.60
2023-04-18T17:08:37.016Z,15.60
2023-04-18T17:11:05.685Z,15.60
2023-04-18T17:13:32.352Z,15.30
2023-04-18T17:15:59.004Z,15.10
2023-04-18T17:18:25.756Z,14.90
2023-04-18T17:20:52.654Z,14.70
2023-04-18T17:23:19.450Z,14.60
2023-04-18T17:25:47.286Z,14.60
2023-04-18T17:28:13.941Z,14.70
2023-04-18T17:30:41.814Z,14.90
2023-04-18T17:33:10.154Z,15.20
2023-04-18T17:35:36.934Z,15.30
2023-04-18T17:38:03.736Z,15.20
2023-04-18T17:40:30.427Z,15.30
2023-04-18T17:42:57.059Z,15.40
2023-04-18T17:45:24.312Z,15.30
2023-04-18T17:47:51.181Z,15.40
2023-04-18T17:50:19.128Z,15.40
2023-04-18T17:52:46.400Z,15.30
2023-04-18T17:55:13.305Z,15.10
2023-04-18T17:57:39.925Z,15.00
2023-04-18T18:00:10.559Z,15.00
2023-04-18T18:02:37.628Z,15.00
2023-04-18T18:05:06.419Z,15.10
2023-04-18T18:07:38.693Z,14.90
2023-04-18T18:10:10.872Z,14.80
2023-04-18T18:12:38.054Z,14.80
2023-04-18T18:15:05.894Z,14.50
2023-04-18T18:17:32.510Z,14.30
2023-04-18T18:19:59.100Z,14.10
2023-04-18T18:22:26.144Z,14.10
2023-04-18T18:24:52.886Z,14.00
2023-04-18T18:27:20.297Z,13.80
2023-04-18T18:29:47.982Z,13.80
2023-04-18T18:32:14.612Z,13.70
2023-04-18T18:34:41.258Z,13.60
2023-04-18T18:37:08.035Z,13.50
2023-04-18T18:39:36.644Z,13.20
2023-04-18T18:42:03.703Z,13.00
2023-04-18T18:44:30.608Z,13.00
2023-04-18T18:46:58.687Z,13.00
2023-04-18T18:49:31.149Z,12.80
2023-04-18T18:51:57.765Z,12.70
2023-04-18T18:54:27.363Z,12.50
2023-04-18T18:56:53.945Z,12.70
2023-04-18T18:59:20.757Z,12.70
2023-04-18T19:01:47.605Z,12.60
2023-04-18T19:04:14.400Z,12.50
2023-04-18T19:06:41.830Z,12.40
2023-04-18T19:09:08.448Z,12.50
2023-04-18T19:11:35.091Z,12.50
2023-04-18T19:14:01.757Z,12.40
2023-04-18T19:16:30.098Z,12.40
2023-04-18T19:18:56.890Z,12.40
2023-04-18T19:21:23.557Z,12.30
2023-04-18T19:23:51.581Z,12.30
2023-04-18T19:26:18.503Z,12.30
2023-04-18T19:28:45.249Z,12.50
2023-04-18T19:31:11.996Z,12.50
2023-04-18T19:33:42.464Z,12.50
2023-04-18T19:36:10.814Z,12.40
2023-04-18T19:38:37.461Z,12.30
2023-04-18T19:41:04.307Z,12.40
2023-04-18T19:43:30.888Z,12.50
2023-04-18T19:45:57.699Z,12.40
2023-04-18T19:48:24.260Z,12.40
2023-04-18T19:50:52.749Z,12.30
2023-04-18T19:53:20.296Z,12.30
2023-04-18T19:55:46.887Z,12.20
2023-04-18T19:58:44.522Z,12.20
2023-04-18T20:01:15.829Z,12.10
2023-04-18T20:03:45.079Z,11.90
2023-04-18T20:06:12.247Z,11.90
2023-04-18T20:08:48.407Z,11.70
2023-04-18T20:11:15.036Z,11.60
2023-04-18T20:13:41.718Z,11.70
2023-04-18T20:16:09.207Z,11.60
2023-04-18T20:18:37.742Z,11.60
2023-04-18T20:21:07.104Z,11.50
2023-04-18T20:23:37.460Z,11.60
2023-04-18T20:26:04.567Z,11.40
2023-04-18T20:28:31.721Z,11.30
2023-04-18T20:30:58.372Z,11.30
2023-04-18T20:33:25.036Z,11.10
2023-04-18T20:35:53.600Z,11.10
2023-04-18T20:38:25.850Z,11.10
2023-04-18T20:40:53.234Z,10.90
2023-04-18T20:43:20.179Z,10.90
2023-04-18T20:45:50.815Z,10.90
2023-04-18T20:48:18.072Z,10.90
2023-04-18T20:50:51.448Z,10.90
2023-04-18T20:53:22.261Z,10.90
2023-04-18T20:55:48.938Z,10.90
2023-04-18T20:58:15.795Z,10.80
2023-04-18T21:00:43.570Z,10.70
2023-04-18T21:03:12.580Z,10.50
2023-04-18T21:05:39.289Z,10.40
2023-04-18T21:08:06.074Z,10.30
2023-04-18T21:10:32.731Z,10.30
2023-04-18T21:12:59.351Z,10.40
2023-04-18T21:15:25.964Z,10.40
2023-04-18T21:17:52.847Z,10.30
2023-04-18T21:20:19.836Z,10.10
2023-04-18T21:22:46.393Z,10.10
2023-04-18T21:25:13.267Z,10.10
2023-04-18T21:27:39.876Z,10.00
2023-04-18T21:30:07.083Z,9.90
2023-04-18T21:32:33.820Z,9.80
2023-04-18T21:35:01.439Z,9.80
2023-04-18T21:37:28.139Z,9.80
2023-04-18T21:39:54.760Z,9.70
2023-04-18T21:42:21.340Z,9.70
2023-04-18T21:44:47.908Z,9.50
2023-04-18T21:47:14.534Z,9.40
2023-04-18T21:49:42.427Z,9.40
2023-04-18T21:52:09.190Z,9.40
2023-04-18T21:54:35.783Z,9.40
2023-04-18T21:57:02.746Z,9.40
2023-04-18T21:59:29.739Z,9.30
2023-04-18T22:01:56.362Z,9.30
2023-04-18T22:04:26.144Z,9.20
2023-04-18T22:06:56.706Z,9.20
2023-04-18T22:09:23.642Z,9.20
2023-04-18T22:11:56.516Z,9.20
2023-04-18T22:14:24.771Z,9.20
2023-04-18T22:16:51.530Z,9.10
2023-04-18T22:19:19.134Z,9.10
2023-04-18T22:21:46.018Z,9.00
2023-04-18T22:24:12.767Z,8.90
2023-04-18T22:26:40.262Z,8.90
2023-04-18T22:29:06.808Z,8.90
2023-04-18T22:31:33.421Z,8.80
2023-04-18T22:34:00.030Z,8.80
2023-04-18T22:36:27.519Z,8.80
2023-04-18T22:38:54.147Z,8.70
2023-04-18T22:41:20.744Z,8.70
2023-04-18T22:43:47.342Z,8.70
2023-04-18T22:46:13.965Z,8.60
2023-04-18T22:48:40.780Z,8.60
2023-04-18T22:51:07.477Z,8.60
2023-04-18T22:53:34.134Z,8.60
2023-04-18T22:56:00.785Z,8.70
2023-04-18T22:58:27.373Z,8.60
2023-04-18T23:00:53.991Z,8.40
2023-04-18T23:03:20.806Z,8.50
2023-04-18T23:05:47.469Z,8.40
2023-04-18T23:08:14.106Z,8.30
2023-04-18T23:10:40.726Z,8.30
2023-04-18T23:13:07.385Z,8.40
2023-04-18T23:15:33.969Z,8.30
2023-04-18T23:18:00.727Z,8.40
2023-04-18T23:20:27.433Z,8.40
2023-04-18T23:22:55.283Z,8.40
2023-04-18T23:25:21.888Z,8.20
2023-04-18T23:27:48.504Z,8.20
2023-04-18T23:30:15.219Z,8.20
2023-04-18T23:32:41.935Z,8.30
2023-04-18T23:35:09.068Z,8.20
2023-04-18T23:37:35.625Z,8.30
2023-04-18T23:40:05.008Z,8.20
2023-04-18T23:42:34.539Z,8.20
2023-04-18T23:45:01.439Z,8.20
2023-04-18T23:47:27.994Z,8.20
2023-04-18T23:49:54.739Z,8.10
2023-04-18T23:52:21.563Z,8.10
2023-04-18T23:54:48.267Z,8.10
2023-04-18T23:57:14.939Z,8.10
2023-04-18T23:59:41.569Z,8.10
